Main page
METAR-TAF:

METAR-TAF

Airports :

AAC Middle Wallop

Middle Wallop, England

latitude: 51-09N, longitude: 001-34W, elevation: 91 m

Current weather observation

The report was made 28 minutes ago, at 21:50 UTC
Wind 4 kt from the West/Northwest
Temperature 0°C
Humidity 93%
Pressure 998 hPa
Visibility 10 km or more
no clouds below 1500 m and no cumulonimbus

METAR: EGVP 222150Z 30004KT CAVOK M00/M01 Q0998 BLU NOSIG

Time: 22:18 (22:18 UTC)

Forecast

The report was made 2 hours and 58 minutes ago, at 19:20 UTC
Forecast valid from 22 at 21 UTC to 22 at 24 UTC
Wind 6 kt from the West/Northwest
Visibility 10 km or more
Few clouds at a height of 1000 ft
Probability 30% :
Temporary
from 22 at 21 UTC to 22 at 24 UTC
Scattered clouds at a height of 1000 ft

TAF: EGVP 221920Z 2221/2224 30006KT 9999 FEW010 PROB30 TEMPO 2221/2224 SCT010

Weather observations and forecasts of more than 4000 airports (METAR and TAF reports).

The available stations are represented by yellow and red dots on the map.

Hover mouse over dot to see the name of the station.

Then click to see weather observations and forecasts.

To change the map : click on the green buttons with a black cross to zoom in, on the green button with a dash to zoom out, or on the green arrows for adjacent maps.


METAR-TAF: